Time;durP1;ratioP1;P1;durP2;ratioP2;P2;SDS_P1;SDS_P2;PMS_P1;PMS_P2;Temp;Humidity;BMP_temperature;BMP_pressure;BME280_temperature;BME280_humidity;BME280_pressure;Samples;Min_cycle;Max_cycle;Signal;HPM_P1;HPM_P2
2023/01/28 00:01:48;;;;;;;60.75;15.40;;;28.50;74.10;;;;;;5085769;28;20066;-54
2023/01/28 00:04:14;;;;;;;105.78;15.27;;;28.50;74.10;;;;;;5086218;28;20083;-57
2023/01/28 00:06:42;;;;;;;147.73;17.75;;;28.50;74.10;;;;;;5085497;28;20040;-56
2023/01/28 00:09:09;;;;;;;138.65;15.80;;;28.50;74.10;;;;;;5085708;28;20073;-56
2023/01/28 00:11:36;;;;;;;109.35;14.68;;;28.40;74.10;;;;;;5085748;28;20032;-56
2023/01/28 00:14:03;;;;;;;68.32;13.18;;;28.50;74.30;;;;;;5086088;28;20043;-55
2023/01/28 00:16:30;;;;;;;65.57;12.05;;;28.40;74.30;;;;;;5084723;28;20142;-54
2023/01/28 00:18:57;;;;;;;58.08;11.68;;;28.40;74.30;;;;;;5084396;28;20032;-56
2023/01/28 00:21:23;;;;;;;66.55;11.48;;;28.50;74.40;;;;;;5085228;28;20047;-56
2023/01/28 00:23:53;;;;;;;49.90;11.07;;;28.40;74.40;;;;;;5085630;28;20092;-57
2023/01/28 00:26:21;;;;;;;56.13;11.57;;;28.50;75.20;;;;;;5085154;28;20087;-55
2023/01/28 00:28:47;;;;;;;33.42;10.90;;;28.50;74.70;;;;;;5085376;28;20024;-55
2023/01/28 00:31:22;;;;;;;36.88;9.93;;;28.40;74.70;;;;;;5085463;28;20051;-58
2023/01/28 00:33:50;;;;;;;37.38;10.07;;;28.50;74.90;;;;;;5085389;28;20111;-55
2023/01/28 00:36:18;;;;;;;24.95;10.55;;;28.50;75.00;;;;;;5085538;28;20097;-59
2023/01/28 00:38:53;;;;;;;35.30;10.43;;;28.50;75.20;;;;;;5085225;28;20051;-60
2023/01/28 00:41:22;;;;;;;35.28;10.68;;;28.50;75.20;;;;;;5085576;28;20991;-55
2023/01/28 00:43:50;;;;;;;29.45;9.07;;;28.50;75.20;;;;;;5084701;28;20048;-54
2023/01/28 00:46:17;;;;;;;29.63;9.88;;;28.50;75.20;;;;;;5084953;28;20031;-56
2023/01/28 00:48:44;;;;;;;29.13;9.48;;;28.50;75.10;;;;;;5084949;28;20204;-57
2023/01/28 00:51:14;;;;;;;33.25;9.63;;;28.40;75.00;;;;;;5085068;28;20017;-58
2023/01/28 00:53:41;;;;;;;28.80;9.68;;;28.40;75.00;;;;;;5082578;28;20032;-56
2023/01/28 00:56:10;;;;;;;21.52;9.40;;;28.40;75.00;;;;;;5073830;28;20028;-54
2023/01/28 00:58:36;;;;;;;27.20;9.35;;;28.40;74.80;;;;;;5084305;28;20324;-58
2023/01/28 01:01:11;;;;;;;24.52;9.15;;;28.40;74.70;;;;;;5078119;28;20017;-54
2023/01/28 01:03:38;;;;;;;17.10;9.35;;;28.40;74.80;;;;;;5081315;28;20024;-54
2023/01/28 01:06:05;;;;;;;24.73;9.90;;;28.40;74.70;;;;;;5083755;28;20083;-56
2023/01/28 01:08:38;;;;;;;29.30;9.65;;;28.40;74.90;;;;;;5083519;28;20023;-56
2023/01/28 01:11:07;;;;;;;27.05;9.75;;;28.30;74.60;;;;;;5076018;28;20056;-51
2023/01/28 01:13:34;;;;;;;34.85;10.35;;;28.30;74.70;;;;;;5078511;28;20020;-57
2023/01/28 01:16:22;;;;;;;29.58;9.30;;;28.30;74.50;;;;;;5074632;28;20024;-56
2023/01/28 01:18:53;;;;;;;27.33;9.65;;;28.40;74.60;;;;;;5084281;28;20032;-58
2023/01/28 01:21:22;;;;;;;25.98;10.98;;;28.30;74.50;;;;;;5076123;28;20028;-57
2023/01/28 01:23:50;;;;;;;35.53;13.25;;;28.30;74.40;;;;;;5070657;28;20032;-55
2023/01/28 01:26:16;;;;;;;31.30;12.43;;;28.30;74.40;;;;;;5083735;28;20025;-54
2023/01/28 01:28:43;;;;;;;31.42;11.45;;;28.30;74.50;;;;;;5063878;28;20372;-57
2023/01/28 01:31:16;;;;;;;22.40;11.05;;;28.30;74.40;;;;;;5063702;28;20127;-55
2023/01/28 01:33:45;;;;;;;22.38;10.93;;;28.30;74.50;;;;;;5078142;28;20079;-55
2023/01/28 01:36:18;;;;;;;16.38;10.02;;;28.30;74.50;;;;;;5074418;28;20025;-59
2023/01/28 01:38:45;;;;;;;26.70;9.85;;;28.20;74.20;;;;;;5074417;28;20037;-57
2023/01/28 01:41:28;;;;;;;25.88;9.10;;;28.20;74.20;;;;;;5081459;28;20207;-53
2023/01/28 01:44:01;;;;;;;16.45;9.18;;;28.20;74.20;;;;;;5079917;28;20115;-55
2023/01/28 01:46:37;;;;;;;;;;;28.20;74.10;;;;;;5078580;28;20185;-58
2023/01/28 01:49:12;;;;;;;19.50;9.18;;;28.20;74.10;;;;;;5082842;28;19909;-58
2023/01/28 01:51:41;;;;;;;16.38;9.15;;;28.20;74.10;;;;;;5081833;28;20028;-57
2023/01/28 01:54:08;;;;;;;16.63;8.52;;;28.10;74.10;;;;;;5081524;28;20024;-56
2023/01/28 01:56:39;;;;;;;16.65;8.13;;;28.10;74.10;;;;;;5083615;28;20308;-56
2023/01/28 01:59:11;;;;;;;16.77;8.50;;;28.10;74.00;;;;;;5083653;28;20017;-57
2023/01/28 02:01:38;;;;;;;20.05;8.88;;;28.10;73.80;;;;;;5083233;28;20393;-56
2023/01/28 02:04:07;;;;;;;15.38;8.40;;;28.10;73.80;;;;;;5083444;28;20208;-59
2023/01/28 02:06:35;;;;;;;18.40;8.73;;;28.10;73.60;;;;;;5083485;28;20032;-56
2023/01/28 02:09:02;;;;;;;21.40;8.98;;;28.10;73.40;;;;;;5074945;28;20035;-59
2023/01/28 02:11:32;;;;;;;22.80;8.70;;;28.10;73.30;;;;;;5073026;28;20048;-60
2023/01/28 02:14:04;;;;;;;28.80;8.73;;;28.00;73.00;;;;;;5063400;28;20096;-59
2023/01/28 02:16:32;;;;;;;17.52;8.10;;;28.00;73.10;;;;;;5066209;28;20030;-62
2023/01/28 02:18:58;;;;;;;25.67;9.27;;;28.00;73.30;;;;;;5081563;28;20058;-53
2023/01/28 02:21:56;;;;;;;31.23;8.77;;;27.90;73.30;;;;;;5074719;28;20067;-47
2023/01/28 02:24:37;;;;;;;38.13;9.70;;;28.00;73.40;;;;;;5081143;28;20088;-54
2023/01/28 02:27:17;;;;;;;21.90;8.13;;;27.90;73.30;;;;;;5077112;28;20025;-51
2023/01/28 02:30:05;;;;;;;19.27;8.68;;;27.90;73.30;;;;;;5078552;28;20029;-52
2023/01/28 02:32:52;;;;;;;15.35;9.05;;;27.90;73.00;;;;;;5083577;28;20183;-52
2023/01/28 02:35:30;;;;;;;14.73;8.40;;;27.90;72.60;;;;;;5083510;28;20044;-54
2023/01/28 02:38:18;;;;;;;15.75;8.60;;;27.90;72.40;;;;;;5083918;28;20016;-51
2023/01/28 02:41:04;;;;;;;17.63;8.90;;;27.90;72.30;;;;;;5065889;28;20044;-50
2023/01/28 02:43:36;;;;;;;15.52;8.90;;;27.90;71.90;;;;;;5066735;28;20052;-53
2023/01/28 02:48:58;;;;;;;12.85;8.95;;;27.90;71.20;;;;;;5085486;28;20038;-49
2023/01/28 02:52:03;;;;;;;12.60;8.40;;;27.90;70.80;;;;;;5086573;28;20082;-55
2023/01/28 02:54:47;;;;;;;16.40;7.68;;;27.90;70.20;;;;;;5045902;28;20036;-54
2023/01/28 02:57:29;;;;;;;12.07;7.00;;;27.80;70.10;;;;;;5085719;28;20365;-55
2023/01/28 03:00:13;;;;;;;16.27;8.02;;;27.80;69.70;;;;;;5086224;28;20031;-52
2023/01/28 03:02:49;;;;;;;23.60;10.27;;;27.80;69.50;;;;;;5086721;28;20049;-59
2023/01/28 03:06:06;;;;;;;16.08;11.70;;;27.80;69.40;;;;;;5086250;28;20059;-53
2023/01/28 03:36:58;;;;;;;14.85;9.85;;;27.70;67.80;;;;;;5085871;28;20262;-54
2023/01/28 03:39:27;;;;;;;11.48;8.70;;;27.70;67.80;;;;;;5076883;28;20020;-54
2023/01/28 03:42:02;;;;;;;15.27;8.73;;;27.70;67.70;;;;;;5081555;28;20236;-55
2023/01/28 03:47:13;;;;;;;17.58;9.15;;;27.70;67.50;;;;;;5085654;28;20031;-52
2023/01/28 03:49:48;;;;;;;15.15;7.80;;;27.70;67.40;;;;;;5085855;28;20027;-54
2023/01/28 03:52:17;;;;;;;14.63;7.38;;;27.70;67.20;;;;;;5085666;28;20039;-53
2023/01/28 03:54:47;;;;;;;14.25;8.38;;;27.70;67.10;;;;;;5085374;28;20050;-53
2023/01/28 03:57:18;;;;;;;14.32;7.95;;;27.60;67.00;;;;;;5085770;28;20103;-54
2023/01/28 03:59:45;;;;;;;11.40;8.03;;;27.60;66.80;;;;;;5085390;28;20348;-55
2023/01/28 04:02:12;;;;;;;10.10;7.40;;;27.60;66.60;;;;;;5085431;28;20063;-50
2023/01/28 04:04:39;;;;;;;10.02;7.15;;;27.60;66.40;;;;;;5085349;28;20028;-52
2023/01/28 04:07:09;;;;;;;9.93;7.32;;;27.60;66.20;;;;;;5085253;28;20043;-54
2023/01/28 04:09:36;;;;;;;12.57;7.63;;;27.60;66.20;;;;;;5085127;28;20075;-54
2023/01/28 04:12:04;;;;;;;10.63;7.13;;;27.60;66.20;;;;;;5085279;28;20020;-52
2023/01/28 04:14:31;;;;;;;16.55;8.32;;;27.60;65.90;;;;;;5084916;28;20329;-54
2023/01/28 04:16:58;;;;;;;15.23;9.52;;;27.60;65.70;;;;;;5085184;28;20197;-53
2023/01/28 04:19:25;;;;;;;15.73;8.95;;;27.50;65.50;;;;;;5084985;28;20032;-54
2023/01/28 04:21:55;;;;;;;10.48;7.47;;;27.50;65.40;;;;;;5084704;28;20055;-54
2023/01/28 04:24:22;;;;;;;11.35;7.72;;;27.50;65.30;;;;;;5084823;28;20021;-52
2023/01/28 04:26:49;;;;;;;17.73;9.48;;;27.50;65.20;;;;;;5085145;28;20024;-54
2023/01/28 04:29:16;;;;;;;18.77;9.75;;;27.50;65.00;;;;;;5084783;28;20343;-52
2023/01/28 04:31:42;;;;;;;14.43;8.82;;;27.50;65.00;;;;;;5085088;28;20016;-53
2023/01/28 04:34:09;;;;;;;44.88;24.65;;;27.50;64.70;;;;;;5084745;28;20091;-53
2023/01/28 04:36:35;;;;;;;122.10;67.47;;;27.50;64.50;;;;;;5084561;28;20036;-52
2023/01/28 04:39:02;;;;;;;132.98;74.65;;;27.50;64.40;;;;;;5084627;28;20032;-53
2023/01/28 04:41:29;;;;;;;152.10;88.15;;;27.50;64.20;;;;;;5084520;28;20047;-51
2023/01/28 04:43:55;;;;;;;121.40;70.03;;;27.50;64.20;;;;;;5084190;28;20079;-55
2023/01/28 04:46:22;;;;;;;150.25;88.50;;;27.50;63.90;;;;;;5084550;28;20356;-55
2023/01/28 04:48:48;;;;;;;207.55;102.38;;;27.40;63.80;;;;;;5084618;28;20032;-53
2023/01/28 04:51:15;;;;;;;194.35;102.68;;;27.40;63.70;;;;;;5084124;28;20028;-53
2023/01/28 04:53:42;;;;;;;231.68;124.35;;;27.40;63.70;;;;;;5084302;28;20082;-51
2023/01/28 04:56:08;;;;;;;252.95;142.88;;;27.40;63.60;;;;;;5077509;28;20109;-60
2023/01/28 04:58:35;;;;;;;185.07;101.72;;;27.40;63.40;;;;;;5064402;28;20037;-54
2023/01/28 05:01:01;;;;;;;162.18;87.65;;;27.40;63.20;;;;;;5064173;28;20036;-54
2023/01/28 05:03:28;;;;;;;159.00;93.05;;;27.40;63.00;;;;;;5063949;28;20317;-53
2023/01/28 05:05:54;;;;;;;163.20;90.18;;;27.40;63.10;;;;;;5064216;28;20221;-53
2023/01/28 05:08:21;;;;;;;172.52;89.53;;;27.40;63.10;;;;;;5063966;28;20317;-56
2023/01/28 05:10:48;;;;;;;125.68;67.30;;;27.30;62.90;;;;;;5064246;28;20100;-53
2023/01/28 05:13:14;;;;;;;108.32;58.33;;;27.40;63.00;;;;;;5064564;28;20025;-53
2023/01/28 05:15:41;;;;;;;94.78;52.92;;;27.30;62.90;;;;;;5063835;28;20032;-54
2023/01/28 05:18:07;;;;;;;95.97;51.25;;;27.30;62.90;;;;;;5064348;28;20297;-54
2023/01/28 05:20:34;;;;;;;74.03;39.25;;;27.30;62.90;;;;;;5063899;28;20212;-51
2023/01/28 05:23:01;;;;;;;53.97;33.13;;;27.30;63.00;;;;;;5064183;28;20313;-54
2023/01/28 05:25:27;;;;;;;70.10;40.75;;;27.30;62.90;;;;;;5063803;28;20028;-52
2023/01/28 05:27:54;;;;;;;86.30;49.78;;;27.30;62.90;;;;;;5064210;28;20029;-54
2023/01/28 05:30:21;;;;;;;80.28;45.70;;;27.30;63.00;;;;;;5063758;28;20024;-55
2023/01/28 05:32:47;;;;;;;61.42;37.10;;;27.30;62.90;;;;;;5064269;28;20084;-56
2023/01/28 05:35:14;;;;;;;52.08;30.70;;;27.20;62.70;;;;;;5080420;28;20281;-54
2023/01/28 05:37:40;;;;;;;42.80;24.75;;;27.20;62.70;;;;;;5084108;28;20095;-59
2023/01/28 05:40:08;;;;;;;40.55;23.48;;;27.20;62.50;;;;;;5083759;28;20085;-52
2023/01/28 05:42:34;;;;;;;39.25;22.30;;;27.20;62.40;;;;;;5083724;28;20405;-55
2023/01/28 05:45:01;;;;;;;33.65;18.85;;;27.20;62.40;;;;;;5083691;28;20029;-55
2023/01/28 05:47:27;;;;;;;34.33;19.10;;;27.20;62.30;;;;;;5083999;28;20316;-52
2023/01/28 05:49:54;;;;;;;36.75;19.58;;;27.20;62.20;;;;;;5083881;28;20021;-56
2023/01/28 05:52:20;;;;;;;41.70;18.70;;;27.20;62.10;;;;;;5083840;28;20035;-52
2023/01/28 05:54:47;;;;;;;29.38;16.85;;;27.20;61.90;;;;;;5083740;28;20335;-50
2023/01/28 05:57:14;;;;;;;27.10;16.80;;;27.20;61.90;;;;;;5083766;28;20024;-53
2023/01/28 05:59:40;;;;;;;20.58;12.82;;;27.10;61.80;;;;;;5083544;28;20103;-52
2023/01/28 06:02:07;;;;;;;17.92;11.10;;;27.10;61.70;;;;;;5083782;28;20177;-53
2023/01/28 06:04:33;;;;;;;17.98;10.77;;;27.10;61.80;;;;;;5083670;28;20278;-52
2023/01/28 06:07:00;;;;;;;16.45;11.27;;;27.10;61.70;;;;;;5083793;28;20126;-51
2023/01/28 06:09:26;;;;;;;14.90;9.23;;;27.10;61.70;;;;;;5083527;28;20037;-55
2023/01/28 06:11:53;;;;;;;16.30;9.20;;;27.10;61.70;;;;;;5083598;28;20204;-53
2023/01/28 06:14:19;;;;;;;14.63;9.15;;;27.10;61.70;;;;;;5084046;28;20148;-59
2023/01/28 06:16:46;;;;;;;21.48;9.90;;;27.00;61.60;;;;;;5087467;28;20033;-53
2023/01/28 06:19:12;;;;;;;19.48;11.30;;;27.00;61.70;;;;;;5087379;28;20028;-54
2023/01/28 06:21:39;;;;;;;18.65;12.45;;;27.00;61.70;;;;;;5087375;28;20087;-52
2023/01/28 06:24:06;;;;;;;27.17;14.85;;;27.00;61.70;;;;;;5087120;28;20032;-50
2023/01/28 06:26:32;;;;;;;24.08;13.70;;;27.00;61.70;;;;;;5087331;28;20322;-48
2023/01/28 06:28:59;;;;;;;25.70;12.48;;;27.00;61.70;;;;;;5087378;28;20092;-49
2023/01/28 06:31:25;;;;;;;40.75;23.10;;;27.00;61.70;;;;;;5086933;28;20167;-52
2023/01/28 06:33:52;;;;;;;27.38;17.45;;;27.00;61.80;;;;;;5086946;28;20035;-51
2023/01/28 06:36:18;;;;;;;26.02;14.30;;;27.00;61.70;;;;;;5087032;28;20033;-51
2023/01/28 06:38:45;;;;;;;23.00;12.55;;;27.00;61.70;;;;;;5086896;28;20033;-56
2023/01/28 06:41:12;;;;;;;16.70;10.45;;;27.00;61.70;;;;;;5086856;28;20066;-52
2023/01/28 06:43:38;;;;;;;13.95;9.65;;;26.90;61.40;;;;;;5086619;28;20044;-52
2023/01/28 06:46:05;;;;;;;12.45;8.73;;;26.90;61.30;;;;;;5086691;28;20021;-56
2023/01/28 06:48:32;;;;;;;15.88;9.77;;;26.90;61.30;;;;;;5086921;28;20312;-58
2023/01/28 06:50:58;;;;;;;13.43;8.52;;;26.90;61.30;;;;;;5085691;28;20032;-53
2023/01/28 06:53:25;;;;;;;14.23;8.60;;;26.90;61.20;;;;;;5077450;28;20039;-52
2023/01/28 06:55:52;;;;;;;16.05;9.40;;;26.90;61.30;;;;;;5066631;28;20035;-53
2023/01/28 06:58:18;;;;;;;14.05;9.32;;;26.90;61.90;;;;;;5066999;28;20025;-53
2023/01/28 07:00:45;;;;;;;12.43;8.57;;;26.90;61.30;;;;;;5066441;28;20082;-55
2023/01/28 07:03:11;;;;;;;20.55;13.02;;;26.90;61.30;;;;;;5066875;28;20028;-54
2023/01/28 07:05:38;;;;;;;21.02;12.90;;;26.90;61.20;;;;;;5066606;28;20039;-53
2023/01/28 07:08:05;;;;;;;17.98;10.02;;;26.90;61.30;;;;;;5066737;28;20024;-49
2023/01/28 07:10:32;;;;;;;16.60;10.82;;;26.90;61.40;;;;;;5066340;28;20115;-54
2023/01/28 07:12:58;;;;;;;13.15;9.48;;;26.80;61.30;;;;;;5066709;28;20036;-54
2023/01/28 07:15:25;;;;;;;14.00;9.30;;;26.80;61.10;;;;;;5066231;28;20032;-61
2023/01/28 07:17:51;;;;;;;14.70;8.85;;;26.80;61.10;;;;;;5066509;28;20339;-52
2023/01/28 07:20:18;;;;;;;10.55;7.85;;;26.80;60.90;;;;;;5066181;28;20397;-52
2023/01/28 07:22:45;;;;;;;11.48;7.63;;;26.80;60.90;;;;;;5066397;28;20040;-51
2023/01/28 07:25:13;;;;;;;11.10;7.70;;;26.80;60.80;;;;;;5065541;28;20067;-54
2023/01/28 07:27:45;;;;;;;14.88;7.75;;;26.80;60.80;;;;;;5066269;28;20185;-51
2023/01/28 07:30:12;;;;;;;13.98;7.70;;;26.80;61.00;;;;;;5065920;28;20043;-52
2023/01/28 07:32:38;;;;;;;9.10;6.88;;;26.80;61.00;;;;;;5066281;28;20075;-52
2023/01/28 07:35:05;;;;;;;11.55;6.90;;;26.70;61.00;;;;;;5065887;28;20033;-52
2023/01/28 07:37:32;;;;;;;12.27;7.15;;;26.80;61.00;;;;;;5065796;28;20100;-50
2023/01/28 07:39:58;;;;;;;8.98;6.57;;;26.80;61.10;;;;;;5065749;28;20150;-51
2023/01/28 07:42:25;;;;;;;9.40;6.38;;;26.70;61.00;;;;;;5065684;28;20086;-52
2023/01/28 07:44:51;;;;;;;9.20;6.53;;;26.70;61.40;;;;;;5065756;28;20040;-53
2023/01/28 07:47:18;;;;;;;7.30;6.20;;;26.70;60.90;;;;;;5065787;28;20289;-55
2023/01/28 07:49:45;;;;;;;7.68;5.43;;;26.70;60.80;;;;;;5065902;28;20186;-52
2023/01/28 07:52:13;;;;;;;9.35;5.65;;;26.70;61.20;;;;;;5065858;28;20305;-52
2023/01/28 07:54:40;;;;;;;8.35;5.75;;;26.70;61.60;;;;;;5065331;28;20044;-53
2023/01/28 07:57:09;;;;;;;7.13;5.70;;;26.70;61.90;;;;;;5065633;28;20028;-49
2023/01/28 07:59:36;;;;;;;7.78;5.68;;;26.70;62.10;;;;;;5065415;28;20029;-47
2023/01/28 08:02:02;;;;;;;7.13;5.15;;;26.70;62.30;;;;;;5065300;28;20212;-48
2023/01/28 08:04:29;;;;;;;7.38;5.35;;;26.60;62.20;;;;;;5065312;28;20032;-50
2023/01/28 08:06:56;;;;;;;6.60;5.35;;;26.60;62.20;;;;;;5065417;28;20029;-50
2023/01/28 08:09:23;;;;;;;8.60;5.53;;;26.60;62.20;;;;;;5065052;28;20028;-52
2023/01/28 08:11:50;;;;;;;7.85;5.30;;;26.60;62.20;;;;;;5065445;28;20029;-53
2023/01/28 08:14:16;;;;;;;9.32;5.30;;;26.60;62.10;;;;;;5065125;28;20190;-52
2023/01/28 08:16:43;;;;;;;10.48;5.55;;;26.60;62.10;;;;;;5065100;28;20323;-48
2023/01/28 08:19:10;;;;;;;7.65;5.88;;;26.60;62.20;;;;;;5065029;28;20036;-54
2023/01/28 08:21:36;;;;;;;7.03;5.35;;;26.60;62.30;;;;;;5065110;28;20024;-54
2023/01/28 08:24:03;;;;;;;6.28;5.20;;;26.60;62.40;;;;;;5064789;28;20037;-60
2023/01/28 08:26:29;;;;;;;5.93;5.30;;;26.50;62.40;;;;;;5064895;28;20021;-58
2023/01/28 08:28:56;;;;;;;6.32;5.72;;;26.60;62.60;;;;;;5064873;28;20035;-49
2023/01/28 08:31:23;;;;;;;7.88;5.70;;;26.50;63.30;;;;;;5064733;28;20319;-53
2023/01/28 08:33:49;;;;;;;9.20;5.47;;;26.50;62.80;;;;;;5064831;28;20036;-50
2023/01/28 08:36:16;;;;;;;6.53;5.32;;;26.50;62.90;;;;;;5064606;28;20017;-54
2023/01/28 08:38:42;;;;;;;7.45;5.30;;;26.50;63.00;;;;;;5063872;28;20071;-50
2023/01/28 08:41:09;;;;;;;11.23;5.55;;;26.50;63.00;;;;;;5064781;28;20032;-52
2023/01/28 08:43:35;;;;;;;7.18;5.90;;;26.50;63.10;;;;;;5064469;28;20086;-53
2023/01/28 08:46:06;;;;;;;6.95;5.13;;;26.50;63.10;;;;;;5064268;28;20028;-52
2023/01/28 08:48:33;;;;;;;6.03;5.38;;;26.50;63.10;;;;;;5064497;28;20316;-52
2023/01/28 08:50:59;;;;;;;6.78;5.43;;;26.40;62.90;;;;;;5064398;28;20063;-53
2023/01/28 08:53:26;;;;;;;7.53;5.63;;;26.40;62.80;;;;;;5064320;28;20043;-53
2023/01/28 08:55:54;;;;;;;7.85;5.40;;;26.40;62.70;;;;;;5064484;28;20367;-53
2023/01/28 08:58:20;;;;;;;6.63;5.28;;;26.40;62.50;;;;;;5064828;28;20036;-54
2023/01/28 09:00:48;;;;;;;7.45;5.00;;;26.40;62.30;;;;;;5064107;28;20043;-53
2023/01/28 09:03:15;;;;;;;8.07;5.30;;;26.40;62.20;;;;;;5064622;28;20029;-52
2023/01/28 09:05:41;;;;;;;8.27;5.28;;;26.40;62.10;;;;;;5064189;28;20344;-53
2023/01/28 09:08:10;;;;;;;6.88;5.10;;;26.40;61.90;;;;;;5064471;28;20044;-54
2023/01/28 09:10:37;;;;;;;6.05;5.05;;;26.40;61.90;;;;;;5064247;28;20041;-55
2023/01/28 09:13:06;;;;;;;7.55;5.07;;;26.30;61.80;;;;;;5064538;28;20024;-53
2023/01/28 09:15:33;;;;;;;9.70;5.43;;;26.30;61.80;;;;;;5063939;28;20079;-47
2023/01/28 09:18:00;;;;;;;8.40;5.32;;;26.30;61.80;;;;;;5064459;28;20075;-55
2023/01/28 09:20:27;;;;;;;7.53;5.45;;;26.30;61.60;;;;;;5064002;28;20033;-50
2023/01/28 09:22:54;;;;;;;12.68;5.47;;;26.30;61.50;;;;;;5063614;28;20325;-57
2023/01/28 09:25:20;;;;;;;10.73;5.70;;;26.30;61.50;;;;;;5063905;28;20064;-47
2023/01/28 09:27:47;;;;;;;10.90;5.40;;;26.30;61.60;;;;;;5064191;28;20021;-48
2023/01/28 09:30:14;;;;;;;12.10;5.28;;;26.30;61.60;;;;;;5063778;28;20044;-53
2023/01/28 09:32:40;;;;;;;8.65;4.90;;;26.30;61.50;;;;;;5064190;28;20021;-50
2023/01/28 09:35:07;;;;;;;11.00;5.57;;;26.30;61.50;;;;;;5076408;28;20096;-53
2023/01/28 09:37:34;;;;;;;6.07;4.72;;;26.20;61.40;;;;;;5084067;28;20024;-58
2023/01/28 09:40:00;;;;;;;7.85;4.93;;;26.20;61.40;;;;;;5083841;28;20272;-49
2023/01/28 09:42:51;;;;;;;6.57;5.05;;;26.20;61.40;;;;;;5083686;28;20049;-56
2023/01/28 09:45:46;;;;;;;11.98;5.40;;;26.20;61.50;;;;;;5083778;28;20058;-58
2023/01/28 09:48:29;;;;;;;6.97;5.07;;;26.20;61.60;;;;;;5082782;28;20033;-60
2023/01/28 09:50:56;;;;;;;7.32;4.68;;;26.20;61.50;;;;;;5087868;28;20077;-52
2023/01/28 09:53:48;;;;;;;14.23;5.15;;;26.20;61.30;;;;;;5074133;28;20037;-50
2023/01/28 09:56:46;;;;;;;28.45;5.93;;;26.20;61.30;;;;;;5061141;28;20060;-56
2023/01/28 09:59:21;;;;;;;15.77;5.72;;;26.20;61.40;;;;;;5056025;28;20048;-54
2023/01/28 10:02:01;;;;;;;12.93;5.20;;;26.10;61.50;;;;;;5072141;28;20182;-50
2023/01/28 10:04:34;;;;;;;6.43;4.47;;;26.10;61.40;;;;;;5084011;28;20060;-50
2023/01/28 10:07:19;;;;;;;;;;;26.10;61.10;;;;;;5088111;28;20042;-52
2023/01/28 10:10:02;;;;;;;9.50;5.07;;;26.10;60.90;;;;;;5087544;28;19930;-48
2023/01/28 10:12:37;;;;;;;12.50;5.40;;;26.10;61.00;;;;;;5087665;28;20046;-53
2023/01/28 10:15:36;;;;;;;5.55;4.65;;;26.10;61.00;;;;;;5087710;28;20055;-55
2023/01/28 10:18:11;;;;;;;7.57;4.82;;;26.10;60.80;;;;;;5087807;28;20024;-48
2023/01/28 10:20:48;;;;;;;6.88;4.53;;;26.10;61.00;;;;;;5087325;28;20082;-49
2023/01/28 10:23:31;;;;;;;10.70;5.28;;;26.10;61.40;;;;;;5087668;28;20200;-56
2023/01/28 10:26:03;;;;;;;12.90;4.95;;;26.10;62.00;;;;;;5087195;28;20036;-50
2023/01/28 10:28:31;;;;;;;8.35;5.10;;;26.10;62.70;;;;;;5087267;28;20032;-54
2023/01/28 10:30:57;;;;;;;7.18;5.03;;;26.10;63.20;;;;;;5087050;28;20032;-53
2023/01/28 10:33:27;;;;;;;8.23;5.32;;;26.10;63.90;;;;;;5087393;28;20016;-57
2023/01/28 10:35:57;;;;;;;7.63;4.43;;;26.00;64.00;;;;;;5087073;28;20379;-50
2023/01/28 10:38:26;;;;;;;7.82;5.18;;;26.10;64.30;;;;;;5087430;28;20304;-54
2023/01/28 10:40:54;;;;;;;9.93;5.13;;;26.10;64.70;;;;;;5086806;28;20100;-53
2023/01/28 10:43:24;;;;;;;8.48;4.88;;;26.10;64.80;;;;;;5086764;28;20060;-50
2023/01/28 10:46:08;;;;;;;7.20;4.93;;;26.10;64.90;;;;;;5086755;28;20047;-50
2023/01/28 10:48:42;;;;;;;8.30;4.90;;;26.10;65.00;;;;;;5085661;28;20024;-49
2023/01/28 10:51:09;;;;;;;11.25;4.80;;;26.10;64.80;;;;;;5085209;28;20074;-54
2023/01/28 10:53:41;;;;;;;10.38;5.05;;;26.10;64.80;;;;;;5085716;28;20109;-48
2023/01/28 10:56:29;;;;;;;13.43;5.50;;;26.10;64.70;;;;;;5086447;28;20094;-49
2023/01/28 10:59:18;;;;;;;7.32;5.05;;;26.10;64.70;;;;;;5086643;28;20055;-54
2023/01/28 11:01:47;;;;;;;9.57;4.70;;;26.10;65.00;;;;;;5084713;28;20032;-53
2023/01/28 11:04:22;;;;;;;10.57;5.00;;;26.10;65.10;;;;;;5086084;28;20055;-53
2023/01/28 11:06:58;;;;;;;12.27;4.97;;;26.10;65.10;;;;;;5086306;28;20095;-53
2023/01/28 11:09:28;;;;;;;12.85;4.90;;;26.10;65.00;;;;;;5083949;28;20039;-50
2023/01/28 11:11:54;;;;;;;8.20;5.13;;;26.00;64.80;;;;;;5079626;28;20052;-54
2023/01/28 11:14:24;;;;;;;12.13;4.82;;;26.00;64.60;;;;;;5085774;28;20027;-58
2023/01/28 11:16:53;;;;;;;12.32;4.90;;;26.10;64.60;;;;;;5081837;28;20019;-52
2023/01/28 11:19:25;;;;;;;10.35;4.47;;;26.10;64.60;;;;;;5077124;28;20267;-54
2023/01/28 11:21:55;;;;;;;16.23;5.05;;;26.10;64.50;;;;;;5075311;28;20021;-53
2023/01/28 11:24:31;;;;;;;26.95;6.40;;;26.00;64.70;;;;;;5074242;28;20021;-56
2023/01/28 11:27:07;;;;;;;24.95;4.80;;;26.10;64.60;;;;;;5074742;28;20020;-51
2023/01/28 11:29:39;;;;;;;24.63;4.93;;;26.10;63.90;;;;;;5073837;28;20028;-57
2023/01/28 11:32:19;;;;;;;20.17;4.88;;;26.00;62.00;;;;;;5066113;28;20021;-58
2023/01/28 11:34:56;;;;;;;18.83;4.50;;;26.00;62.10;;;;;;5066211;28;20032;-58
2023/01/28 11:37:25;;;;;;;8.25;3.78;;;26.00;61.60;;;;;;5066742;28;20079;-57
2023/01/28 11:40:19;;;;;;;17.92;4.40;;;26.00;61.10;;;;;;5065914;28;20041;-58
2023/01/28 11:42:57;;;;;;;13.52;4.43;;;26.00;60.90;;;;;;5065845;28;20037;-55
2023/01/28 11:46:10;;;;;;;12.30;4.05;;;26.00;60.60;;;;;;5066630;28;20033;-57
2023/01/28 11:48:40;;;;;;;22.23;4.10;;;26.00;60.40;;;;;;5043835;28;20040;-57
2023/01/28 11:51:28;;;;;;;52.63;6.10;;;26.00;60.10;;;;;;5064337;28;20252;-56
2023/01/28 11:54:22;;;;;;;35.90;5.22;;;26.00;60.00;;;;;;5065057;28;20228;-57
2023/01/28 11:57:32;;;;;;;24.85;4.75;;;26.00;59.70;;;;;;5066635;28;20204;-64
2023/01/28 12:00:28;;;;;;;23.25;4.55;;;26.00;59.30;;;;;;5066328;28;20048;-57
2023/01/28 12:03:27;;;;;;;14.63;5.53;;;26.00;59.30;;;;;;5064981;28;20066;-57
2023/01/28 12:06:09;;;;;;;16.63;5.40;;;26.00;59.50;;;;;;5066086;28;20035;-55
2023/01/28 12:09:06;;;;;;;21.92;5.32;;;26.00;59.80;;;;;;5065767;28;20029;-56
2023/01/28 12:14:42;;;;;;;16.20;5.30;;;26.00;60.00;;;;;;5065685;28;20090;-56
2023/01/28 12:17:21;;;;;;;15.98;4.60;;;26.10;60.30;;;;;;5066271;28;20040;-57
2023/01/28 12:20:12;;;;;;;19.65;5.30;;;26.10;60.20;;;;;;5065429;28;20106;-57
2023/01/28 12:22:48;;;;;;;21.38;6.40;;;26.10;60.30;;;;;;5066193;28;20037;-55
2023/01/28 12:25:50;;;;;;;35.38;6.82;;;26.10;60.50;;;;;;5065699;28;20048;-56
2023/01/28 12:28:37;;;;;;;28.38;6.45;;;26.10;60.80;;;;;;5065937;28;20072;-56
2023/01/28 12:31:19;;;;;;;21.27;6.25;;;26.10;61.10;;;;;;5065313;28;20033;-56
2023/01/28 12:34:19;;;;;;;37.08;6.38;;;26.10;61.50;;;;;;5065950;28;20090;-56
2023/01/28 12:36:59;;;;;;;20.65;5.75;;;26.10;61.80;;;;;;5065728;28;20025;-57
2023/01/28 12:39:52;;;;;;;21.67;5.60;;;26.20;62.20;;;;;;5065723;28;20340;-57
2023/01/28 12:42:18;;;;;;;;;;;26.20;62.50;;;;;;5059206;28;20170;-58
2023/01/28 12:44:53;;;;;;;19.08;5.72;;;26.20;62.80;;;;;;5065578;28;19915;-57
2023/01/28 12:47:26;;;;;;;19.00;6.28;;;26.30;63.10;;;;;;5065523;28;20037;-55
2023/01/28 12:50:24;;;;;;;19.58;6.55;;;26.30;63.50;;;;;;5065509;28;20025;-54
2023/01/28 12:52:58;;;;;;;17.95;6.03;;;26.30;64.10;;;;;;5062879;28;20049;-56
2023/01/28 12:55:43;;;;;;;16.65;6.05;;;26.30;64.60;;;;;;5064944;28;20032;-58
2023/01/28 12:58:17;;;;;;;15.93;5.35;;;26.40;64.80;;;;;;5065540;28;20039;-55
2023/01/28 13:00:51;;;;;;;14.43;5.80;;;26.40;65.40;;;;;;5065116;28;20078;-57
2023/01/28 13:03:49;;;;;;;15.02;5.75;;;26.40;65.40;;;;;;5065591;28;20052;-56
2023/01/28 13:06:47;;;;;;;17.10;5.25;;;26.40;65.50;;;;;;5065080;28;20328;-54
2023/01/28 13:09:25;;;;;;;15.18;4.95;;;26.40;64.60;;;;;;5056617;28;20052;-57
2023/01/28 13:11:56;;;;;;;14.48;5.18;;;26.50;64.10;;;;;;5064742;28;20036;-58
2023/01/28 13:14:30;;;;;;;10.30;4.35;;;26.50;63.60;;;;;;5064357;28;20047;-58
2023/01/28 13:17:09;;;;;;;9.90;4.35;;;26.50;63.40;;;;;;5064960;28;20029;-57
2023/01/28 13:19:40;;;;;;;18.42;5.43;;;26.50;63.40;;;;;;5064870;28;20264;-55
2023/01/28 13:22:13;;;;;;;15.77;4.28;;;26.50;63.50;;;;;;5064948;28;20044;-56
2023/01/28 13:24:40;;;;;;;20.45;4.90;;;26.50;63.70;;;;;;5064594;28;20048;-57
2023/01/28 13:27:13;;;;;;;14.13;4.40;;;26.50;63.60;;;;;;5064743;28;20029;-57
2023/01/28 13:29:39;;;;;;;11.82;4.50;;;26.50;63.70;;;;;;5064441;28;20031;-58
2023/01/28 13:32:48;;;;;;;39.53;6.30;;;26.50;64.00;;;;;;5065106;28;20032;-57
2023/01/28 13:35:37;;;;;;;12.02;4.78;;;26.60;64.30;;;;;;5064629;28;20036;-57
2023/01/28 13:38:18;;;;;;;12.57;4.60;;;26.60;64.60;;;;;;5064554;28;20074;-58